Time;durP1;ratioP1;P1;durP2;ratioP2;P2;SDS_P1;SDS_P2;PMS_P1;PMS_P2;Temp;Humidity;BMP_temperature;BMP_pressure;BME280_temperature;BME280_humidity;BME280_pressure;Samples;Min_cycle;Max_cycle;Signal;HPM_P1;HPM_P2
2023/02/12 00:00:33;;;;;;;26.47;10.97;;;6.90;99.90;;;;;;4955224;28;20383;-67
2023/02/12 00:02:58;;;;;;;24.10;11.23;;;7.00;99.90;;;;;;4954173;28;20025;-73
2023/02/12 00:05:24;;;;;;;22.73;11.57;;;6.90;99.90;;;;;;4954828;28;20051;-72
2023/02/12 00:07:50;;;;;;;26.43;11.67;;;7.00;99.90;;;;;;4954331;28;20459;-76
2023/02/12 00:10:16;;;;;;;30.00;11.53;;;6.90;99.90;;;;;;4954169;28;20036;-67
2023/02/12 00:12:42;;;;;;;26.10;11.57;;;6.90;99.90;;;;;;4955191;28;20133;-71
2023/02/12 00:15:08;;;;;;;22.67;11.50;;;6.90;99.90;;;;;;4954374;28;20710;-66
2023/02/12 00:17:33;;;;;;;29.17;11.80;;;6.90;99.90;;;;;;4955826;28;20078;-67
2023/02/12 00:19:59;;;;;;;25.63;11.53;;;6.90;99.90;;;;;;4953690;28;20033;-74
2023/02/12 00:22:25;;;;;;;25.10;11.27;;;6.90;99.90;;;;;;4958046;28;20112;-67
2023/02/12 00:24:51;;;;;;;23.50;11.53;;;6.90;99.90;;;;;;4939178;28;20708;-68
2023/02/12 00:27:16;;;;;;;20.23;10.93;;;6.80;99.90;;;;;;4958130;28;20139;-73
2023/02/12 00:29:42;;;;;;;27.08;12.35;;;6.80;99.90;;;;;;4956309;28;20601;-68
2023/02/12 00:32:08;;;;;;;23.33;11.77;;;6.80;99.90;;;;;;4956291;28;20033;-68
2023/02/12 00:34:33;;;;;;;34.50;11.53;;;6.80;99.90;;;;;;4954856;28;20847;-69
2023/02/12 00:36:59;;;;;;;29.03;12.13;;;6.70;99.90;;;;;;4954273;28;20040;-74
2023/02/12 00:39:25;;;;;;;26.77;11.53;;;6.70;99.90;;;;;;4939124;28;20524;-73
2023/02/12 00:41:51;;;;;;;31.33;11.57;;;6.70;99.90;;;;;;4955545;28;20036;-66
2023/02/12 00:44:16;;;;;;;25.38;11.52;;;6.60;99.90;;;;;;4957167;28;21467;-70
2023/02/12 00:46:42;;;;;;;24.37;12.10;;;6.60;99.90;;;;;;4955760;28;20794;-66
2023/02/12 00:49:07;;;;;;;21.43;12.30;;;6.60;99.90;;;;;;4954931;28;20963;-66
2023/02/12 00:51:33;;;;;;;23.57;11.80;;;6.60;99.90;;;;;;4954227;28;20029;-67
2023/02/12 00:53:59;;;;;;;26.80;12.23;;;6.50;99.90;;;;;;4955698;28;23834;-67
2023/02/12 00:56:24;;;;;;;25.43;11.00;;;6.50;99.90;;;;;;4937044;28;20021;-68
2023/02/12 00:58:50;;;;;;;33.23;11.80;;;6.50;99.90;;;;;;4954937;28;24098;-67
2023/02/12 01:01:17;;;;;;;26.27;12.40;;;6.50;99.90;;;;;;4954384;28;20020;-67
2023/02/12 01:03:42;;;;;;;28.35;12.10;;;6.50;99.90;;;;;;4954518;28;20025;-67
2023/02/12 01:06:08;;;;;;;29.80;12.20;;;6.50;99.90;;;;;;4955810;28;21233;-67
2023/02/12 01:08:34;;;;;;;29.10;12.60;;;6.50;99.90;;;;;;4953068;28;21255;-67
2023/02/12 01:11:02;;;;;;;32.10;12.48;;;6.40;99.90;;;;;;4954008;28;20028;-75
2023/02/12 01:13:29;;;;;;;27.60;11.98;;;6.40;99.90;;;;;;4952619;28;20120;-74
2023/02/12 01:16:09;;;;;;;23.25;12.10;;;6.40;99.90;;;;;;4953149;28;21478;-75
2023/02/12 01:18:36;;;;;;;28.50;13.50;;;6.40;99.90;;;;;;4938406;28;21773;-67
2023/02/12 01:21:09;;;;;;;27.60;12.20;;;6.40;99.90;;;;;;4937340;28;20366;-66
2023/02/12 01:23:35;;;;;;;22.55;11.75;;;6.40;99.90;;;;;;4957162;28;20119;-68
2023/02/12 01:26:00;;;;;;;29.37;13.27;;;6.40;99.90;;;;;;4955396;28;20043;-67
2023/02/12 01:28:26;;;;;;;26.73;12.83;;;6.40;99.90;;;;;;4959967;28;20111;-70
2023/02/12 01:30:52;;;;;;;32.55;13.60;;;6.40;99.90;;;;;;4959719;28;20056;-66
2023/02/12 01:33:17;;;;;;;24.07;11.90;;;6.40;99.90;;;;;;4964034;28;20053;-74
2023/02/12 01:35:43;;;;;;;30.57;12.67;;;6.40;99.90;;;;;;4961572;28;20111;-73
2023/02/12 01:38:09;;;;;;;28.50;12.33;;;6.40;99.90;;;;;;4941242;28;20154;-67
2023/02/12 01:40:36;;;;;;;27.70;12.43;;;6.30;99.90;;;;;;4959535;28;20103;-75
2023/02/12 01:43:02;;;;;;;27.70;11.80;;;6.40;99.90;;;;;;4957920;28;20029;-67
2023/02/12 01:45:27;;;;;;;28.00;12.05;;;6.40;99.90;;;;;;4940545;28;20029;-74
2023/02/12 01:47:53;;;;;;;24.00;11.53;;;6.30;99.90;;;;;;4957897;28;21332;-66
2023/02/12 01:50:20;;;;;;;34.17;12.73;;;6.30;99.90;;;;;;4942270;28;20497;-76
2023/02/12 01:52:49;;;;;;;24.98;13.02;;;6.30;99.90;;;;;;4924846;28;20044;-67
2023/02/12 01:55:16;;;;;;;27.70;13.15;;;6.30;99.90;;;;;;4959346;28;21057;-67
2023/02/12 01:57:44;;;;;;;27.70;12.75;;;6.30;99.90;;;;;;4958911;28;20078;-67
2023/02/12 02:00:15;;;;;;;26.05;12.23;;;6.20;99.90;;;;;;4957663;28;20050;-74
2023/02/12 02:02:44;;;;;;;23.50;11.68;;;6.20;99.90;;;;;;4958102;28;20162;-67
2023/02/12 02:05:14;;;;;;;25.70;12.30;;;6.20;99.90;;;;;;4958006;28;20165;-67
2023/02/12 02:07:42;;;;;;;29.40;13.18;;;6.20;99.90;;;;;;4958237;28;20029;-67
2023/02/12 02:10:08;;;;;;;26.80;12.15;;;6.20;99.90;;;;;;4958287;28;20082;-75
2023/02/12 02:15:19;;;;;;;26.52;12.52;;;6.20;99.90;;;;;;4957484;28;20154;-67
2023/02/12 02:18:09;;;;;;;27.77;11.97;;;6.20;99.90;;;;;;4957286;28;21070;-67
2023/02/12 02:20:59;;;;;;;31.67;12.95;;;6.30;99.90;;;;;;4957496;28;20025;-67
2023/02/12 02:24:03;;;;;;;24.95;11.80;;;6.30;99.90;;;;;;4956770;28;20024;-66
2023/02/12 02:26:53;;;;;;;27.55;12.13;;;6.30;99.90;;;;;;4959079;28;20044;-67
2023/02/12 02:29:57;;;;;;;21.30;11.23;;;6.30;99.90;;;;;;4955690;28;20074;-66
2023/02/12 02:32:49;;;;;;;26.60;11.88;;;6.30;99.90;;;;;;4955115;28;21399;-66
2023/02/12 02:35:37;;;;;;;23.63;11.05;;;6.30;99.90;;;;;;4949427;28;20888;-75
2023/02/12 02:38:40;;;;;;;23.88;10.80;;;6.10;99.90;;;;;;4955307;28;20030;-66
2023/02/12 02:41:08;;;;;;;26.85;12.23;;;6.00;99.90;;;;;;4956702;28;20163;-75
2023/02/12 02:43:47;;;;;;;25.48;12.48;;;5.90;99.90;;;;;;4956691;28;20488;-67
2023/02/12 02:46:44;;;;;;;27.40;11.52;;;5.90;99.90;;;;;;4938032;28;20021;-67
2023/02/12 02:49:24;;;;;;;31.50;13.05;;;5.80;99.90;;;;;;4956668;28;20427;-67
2023/02/12 02:52:02;;;;;;;28.17;12.38;;;5.80;99.90;;;;;;4957618;28;20040;-75
2023/02/12 02:54:40;;;;;;;23.70;11.55;;;5.80;99.90;;;;;;4936445;28;21801;-69
2023/02/12 02:57:16;;;;;;;31.48;13.43;;;5.80;99.90;;;;;;4957282;28;20353;-75
2023/02/12 02:59:56;;;;;;;29.70;12.05;;;5.70;99.90;;;;;;4935835;28;20029;-67
2023/02/12 03:02:30;;;;;;;26.98;12.30;;;5.60;99.90;;;;;;4954741;28;20033;-67
2023/02/12 03:05:07;;;;;;;23.02;11.15;;;5.60;99.90;;;;;;4937530;28;20028;-67
2023/02/12 03:07:39;;;;;;;29.38;12.32;;;5.60;99.90;;;;;;4956246;28;20037;-67
2023/02/12 03:10:15;;;;;;;25.55;11.88;;;5.60;99.90;;;;;;4957063;28;20040;-66
2023/02/12 03:13:01;;;;;;;28.08;11.93;;;5.60;99.90;;;;;;4956735;28;20426;-72
2023/02/12 03:15:33;;;;;;;27.83;12.27;;;5.60;99.90;;;;;;4957970;28;20697;-71
2023/02/12 03:18:02;;;;;;;23.23;10.80;;;5.60;99.90;;;;;;4955655;28;20024;-76
2023/02/12 03:20:35;;;;;;;23.65;10.40;;;5.60;99.90;;;;;;4958004;28;20117;-67
2023/02/12 03:23:07;;;;;;;29.30;13.75;;;5.60;99.90;;;;;;4956047;28;20029;-76
2023/02/12 03:25:39;;;;;;;35.10;13.50;;;5.60;99.90;;;;;;4956169;28;20059;-67
2023/02/12 03:28:18;;;;;;;33.63;14.05;;;5.60;99.90;;;;;;4954207;28;20040;-67
2023/02/12 03:30:58;;;;;;;32.15;14.48;;;5.80;99.90;;;;;;4956042;28;20444;-67
2023/02/12 03:33:58;;;;;;;32.70;13.70;;;5.80;99.90;;;;;;4939435;28;20054;-70
2023/02/12 03:36:46;;;;;;;30.05;13.07;;;5.80;99.90;;;;;;4958588;28;20144;-66
2023/02/12 03:39:44;;;;;;;31.67;13.38;;;5.90;99.90;;;;;;4939981;28;20036;-66
2023/02/12 03:42:15;;;;;;;33.00;14.13;;;5.90;99.90;;;;;;4941266;28;20025;-66
2023/02/12 03:44:56;;;;;;;33.70;14.60;;;5.90;99.90;;;;;;4956912;28;21868;-66
2023/02/12 03:47:24;;;;;;;30.63;13.43;;;6.00;99.90;;;;;;4957008;28;20044;-65
2023/02/12 03:49:56;;;;;;;30.00;12.90;;;5.90;99.90;;;;;;4955162;28;20048;-67
2023/02/12 03:52:22;;;;;;;29.38;12.98;;;5.90;99.90;;;;;;4954198;28;20079;-67
2023/02/12 03:54:48;;;;;;;35.53;14.23;;;5.90;99.90;;;;;;4955264;28;21300;-67
2023/02/12 03:57:21;;;;;;;34.08;13.00;;;5.90;99.90;;;;;;4938380;28;20031;-75
2023/02/12 03:59:48;;;;;;;31.40;13.07;;;6.00;99.90;;;;;;4955369;28;20108;-75
2023/02/12 04:02:15;;;;;;;29.55;13.23;;;6.00;99.90;;;;;;4957974;28;20033;-67
2023/02/12 04:04:42;;;;;;;27.60;12.27;;;6.00;99.90;;;;;;4952889;28;21125;-67
2023/02/12 04:07:09;;;;;;;28.27;12.90;;;6.00;99.90;;;;;;4956141;28;20044;-74
2023/02/12 04:09:35;;;;;;;25.55;11.55;;;5.90;99.90;;;;;;4954914;28;20098;-66
2023/02/12 04:12:15;;;;;;;27.67;12.30;;;5.90;99.90;;;;;;4939371;28;20044;-66
2023/02/12 04:14:47;;;;;;;27.13;13.38;;;5.90;99.90;;;;;;4953809;28;20037;-66
2023/02/12 04:17:47;;;;;;;31.00;14.27;;;5.90;99.90;;;;;;4955973;28;20042;-68
2023/02/12 04:20:42;;;;;;;28.05;13.57;;;5.90;99.90;;;;;;4952660;28;20020;-65
2023/02/12 04:23:16;;;;;;;28.33;13.00;;;5.90;99.90;;;;;;4952636;28;20036;-67
2023/02/12 04:25:51;;;;;;;27.80;13.25;;;6.00;99.90;;;;;;4953626;28;20044;-67
2023/02/12 04:28:39;;;;;;;29.90;13.45;;;6.00;99.90;;;;;;4952558;28;20494;-71
2023/02/12 04:31:22;;;;;;;29.38;13.15;;;6.00;99.90;;;;;;4953445;28;21416;-68
2023/02/12 04:34:10;;;;;;;27.45;12.75;;;6.00;99.90;;;;;;4921819;28;20414;-67
2023/02/12 04:36:48;;;;;;;27.38;13.18;;;6.00;99.90;;;;;;4935761;28;20048;-73
2023/02/12 04:39:22;;;;;;;25.90;11.95;;;5.90;99.90;;;;;;4954456;28;20016;-68
2023/02/12 04:41:48;;;;;;;28.63;12.65;;;5.90;99.90;;;;;;4954313;28;20169;-72
2023/02/12 04:44:18;;;;;;;26.27;12.60;;;5.90;99.90;;;;;;4955918;28;20039;-66
2023/02/12 04:46:44;;;;;;;27.40;12.30;;;5.90;99.90;;;;;;4957048;28;20773;-67
2023/02/12 04:49:15;;;;;;;26.77;13.67;;;6.00;99.90;;;;;;4957097;28;20052;-68
2023/02/12 04:51:41;;;;;;;30.17;13.63;;;6.00;99.90;;;;;;4936658;28;20966;-68
2023/02/12 04:54:06;;;;;;;26.90;11.85;;;6.00;99.90;;;;;;4955944;28;20116;-67
2023/02/12 04:56:32;;;;;;;26.40;12.30;;;6.00;99.90;;;;;;4957711;28;20447;-67
2023/02/12 04:58:58;;;;;;;29.60;11.40;;;5.90;99.90;;;;;;4955611;28;20028;-67
2023/02/12 05:01:24;;;;;;;29.60;13.07;;;5.90;99.90;;;;;;4955577;28;20419;-73
2023/02/12 05:03:51;;;;;;;28.30;13.17;;;5.90;99.90;;;;;;4944316;28;20725;-74
2023/02/12 05:06:17;;;;;;;30.92;13.88;;;5.90;99.90;;;;;;4959672;28;20112;-67
2023/02/12 05:08:43;;;;;;;29.48;14.35;;;5.90;99.90;;;;;;4959418;28;20033;-74
2023/02/12 05:11:09;;;;;;;39.63;14.23;;;5.90;99.90;;;;;;4957956;28;20028;-67
2023/02/12 05:13:35;;;;;;;29.27;13.07;;;6.00;99.90;;;;;;4960956;28;20911;-67
2023/02/12 05:16:05;;;;;;;31.37;13.97;;;6.00;99.90;;;;;;4958992;28;20039;-67
2023/02/12 05:18:31;;;;;;;25.50;11.90;;;6.00;99.90;;;;;;4960940;28;20033;-67
2023/02/12 05:21:03;;;;;;;29.25;13.68;;;5.90;99.90;;;;;;4958835;28;20057;-72
2023/02/12 05:23:31;;;;;;;24.95;13.07;;;5.90;99.90;;;;;;4960010;28;21620;-68
2023/02/12 05:25:59;;;;;;;24.35;11.88;;;5.90;99.90;;;;;;4962648;28;20446;-74
2023/02/12 05:28:25;;;;;;;31.73;11.75;;;5.90;99.90;;;;;;4961236;28;20426;-67
2023/02/12 05:30:50;;;;;;;48.53;14.47;;;5.90;99.90;;;;;;4959870;28;20033;-72
2023/02/12 05:33:16;;;;;;;29.80;14.63;;;5.90;99.90;;;;;;4941029;28;20037;-66
2023/02/12 05:35:41;;;;;;;29.77;13.57;;;6.00;99.90;;;;;;4961308;28;21873;-75
2023/02/12 05:38:07;;;;;;;37.23;14.03;;;6.00;99.90;;;;;;4962298;28;20216;-71
2023/02/12 05:40:34;;;;;;;32.63;13.93;;;6.00;99.90;;;;;;4960323;28;20035;-71
2023/02/12 05:43:00;;;;;;;37.25;15.68;;;6.00;99.90;;;;;;4958485;28;20041;-76
2023/02/12 05:45:28;;;;;;;34.83;16.07;;;6.00;99.90;;;;;;4962668;28;20048;-73
2023/02/12 05:47:55;;;;;;;32.97;14.88;;;6.10;99.90;;;;;;4958825;28;20257;-67
2023/02/12 05:50:22;;;;;;;31.00;12.70;;;6.10;99.90;;;;;;4958455;28;20158;-68
2023/02/12 05:52:47;;;;;;;26.17;12.10;;;6.10;99.90;;;;;;4959255;28;20025;-68
2023/02/12 05:55:13;;;;;;;26.70;12.60;;;6.10;99.90;;;;;;4960788;28;20043;-75
2023/02/12 05:57:39;;;;;;;32.27;13.37;;;6.10;99.90;;;;;;4960021;28;20074;-67
2023/02/12 06:00:11;;;;;;;29.63;14.30;;;6.10;99.90;;;;;;4959892;28;20024;-66
2023/02/12 06:02:37;;;;;;;26.30;12.02;;;6.10;99.90;;;;;;4942105;28;20029;-74
2023/02/12 06:05:03;;;;;;;30.13;13.07;;;6.20;99.90;;;;;;4959520;28;20039;-67
2023/02/12 06:07:28;;;;;;;28.07;14.27;;;6.10;99.90;;;;;;4957892;28;20815;-67
2023/02/12 06:09:54;;;;;;;27.03;13.23;;;6.10;99.90;;;;;;4960793;28;20021;-66
2023/02/12 06:12:20;;;;;;;34.53;14.10;;;6.10;99.90;;;;;;4938041;28;20068;-67
2023/02/12 06:14:46;;;;;;;33.40;14.23;;;6.10;99.90;;;;;;4956357;28;20792;-74
2023/02/12 06:17:12;;;;;;;29.37;13.80;;;6.10;99.90;;;;;;4956726;28;20025;-74
2023/02/12 06:19:38;;;;;;;34.00;13.85;;;6.00;99.90;;;;;;4956476;28;20761;-75
2023/02/12 06:22:04;;;;;;;36.90;15.00;;;6.10;99.90;;;;;;4957329;28;20037;-68
2023/02/12 06:24:30;;;;;;;34.60;15.45;;;6.10;99.90;;;;;;4937269;28;20694;-67
2023/02/12 06:26:55;;;;;;;26.73;13.97;;;6.10;99.90;;;;;;4940115;28;20025;-67
2023/02/12 06:29:22;;;;;;;37.53;15.43;;;6.10;99.90;;;;;;4940431;28;20298;-66
2023/02/12 06:31:48;;;;;;;;;;;6.10;99.90;;;;;;4938361;28;20132;-67
2023/02/12 06:34:17;;;;;;;38.42;13.60;;;6.10;99.90;;;;;;4937942;28;19979;-67
2023/02/12 06:36:45;;;;;;;42.35;15.57;;;6.10;99.90;;;;;;4936732;28;20084;-66
2023/02/12 06:39:14;;;;;;;35.33;15.52;;;6.10;99.90;;;;;;4936467;28;20076;-66
2023/02/12 06:41:41;;;;;;;41.97;15.07;;;6.10;99.90;;;;;;4938651;28;20040;-66
2023/02/12 06:44:07;;;;;;;38.55;16.15;;;6.20;99.90;;;;;;4939022;28;20044;-67
2023/02/12 06:46:33;;;;;;;43.20;17.10;;;6.20;99.90;;;;;;4937504;28;20116;-67
2023/02/12 06:49:00;;;;;;;34.87;15.40;;;6.20;99.90;;;;;;4937985;28;20028;-67
2023/02/12 06:51:26;;;;;;;35.00;15.27;;;6.20;99.90;;;;;;4936072;28;20486;-66
2023/02/12 06:53:54;;;;;;;36.60;15.82;;;6.20;99.90;;;;;;4937739;28;20347;-67
2023/02/12 06:56:21;;;;;;;33.17;15.63;;;6.20;99.90;;;;;;4939916;28;20105;-67
2023/02/12 06:58:52;;;;;;;31.50;15.73;;;6.20;99.90;;;;;;4937885;28;20188;-67
2023/02/12 07:01:21;;;;;;;33.60;15.27;;;6.30;99.90;;;;;;4938899;28;20025;-66
2023/02/12 07:03:49;;;;;;;35.58;15.88;;;6.20;99.90;;;;;;4940656;28;20033;-67
2023/02/12 07:06:15;;;;;;;39.92;16.42;;;6.20;99.90;;;;;;4938458;28;20040;-67
2023/02/12 07:08:41;;;;;;;34.13;16.53;;;6.20;99.90;;;;;;4939315;28;20044;-67
2023/02/12 07:11:07;;;;;;;36.23;14.97;;;6.30;99.90;;;;;;4940785;28;20068;-68
2023/02/12 07:13:33;;;;;;;40.33;16.07;;;6.30;99.90;;;;;;4938834;28;20033;-67
2023/02/12 07:16:07;;;;;;;32.63;15.25;;;6.30;99.90;;;;;;4937904;28;20547;-66
2023/02/12 07:18:34;;;;;;;35.83;15.18;;;6.30;99.90;;;;;;4936014;28;21141;-68
2023/02/12 07:21:00;;;;;;;32.42;15.38;;;6.30;99.90;;;;;;4935845;28;20030;-67
2023/02/12 07:23:25;;;;;;;40.13;16.63;;;6.30;99.90;;;;;;4936988;28;20033;-66
2023/02/12 07:26:02;;;;;;;44.13;15.37;;;6.30;99.90;;;;;;4954408;28;21702;-73
2023/02/12 07:28:32;;;;;;;36.20;15.23;;;6.30;99.90;;;;;;4957353;28;20102;-67
2023/02/12 07:30:58;;;;;;;36.47;15.45;;;6.30;99.90;;;;;;4939869;28;20032;-67
2023/02/12 07:33:24;;;;;;;32.15;15.57;;;6.40;99.90;;;;;;4956136;28;20773;-70
2023/02/12 07:35:49;;;;;;;30.97;16.30;;;6.40;99.90;;;;;;4957465;28;20042;-69
2023/02/12 07:38:15;;;;;;;35.77;16.30;;;6.40;99.90;;;;;;4955237;28;20025;-70
2023/02/12 07:40:41;;;;;;;34.50;15.57;;;6.40;99.90;;;;;;4958264;28;20029;-68
2023/02/12 07:43:06;;;;;;;28.80;14.53;;;6.40;99.90;;;;;;4955460;28;20033;-67
2023/02/12 07:45:32;;;;;;;37.93;16.47;;;6.40;99.90;;;;;;4956956;28;20028;-67
2023/02/12 07:47:58;;;;;;;35.70;15.30;;;6.50;99.90;;;;;;4957925;28;20033;-73
2023/02/12 07:50:23;;;;;;;33.87;14.77;;;6.50;99.90;;;;;;4956412;28;21330;-67
2023/02/12 07:52:49;;;;;;;35.30;14.93;;;6.50;99.90;;;;;;4955683;28;21887;-68
2023/02/12 07:55:15;;;;;;;31.73;15.23;;;6.40;99.90;;;;;;4958980;28;20907;-73
2023/02/12 07:57:41;;;;;;;41.28;16.38;;;6.50;99.90;;;;;;4955682;28;20029;-66
2023/02/12 08:00:08;;;;;;;40.77;16.60;;;6.50;99.90;;;;;;4955345;28;20160;-72
2023/02/12 08:02:34;;;;;;;32.70;14.90;;;6.60;99.90;;;;;;4957559;28;20039;-66
2023/02/12 08:04:59;;;;;;;33.77;15.30;;;6.60;99.90;;;;;;4958938;28;20029;-73
2023/02/12 08:07:25;;;;;;;31.87;14.40;;;6.60;99.90;;;;;;4955688;28;20029;-66
2023/02/12 08:09:51;;;;;;;34.40;15.90;;;6.70;99.90;;;;;;4955077;28;20089;-70
2023/02/12 08:12:17;;;;;;;34.83;16.03;;;6.70;99.90;;;;;;4954250;28;20036;-67
2023/02/12 08:14:43;;;;;;;33.80;14.00;;;6.80;99.90;;;;;;4952544;28;20032;-72
2023/02/12 08:17:09;;;;;;;30.57;15.70;;;6.80;99.90;;;;;;4936109;28;20391;-67
2023/02/12 08:19:35;;;;;;;33.05;14.88;;;6.80;99.90;;;;;;4958439;28;20318;-72
2023/02/12 08:22:02;;;;;;;27.95;14.95;;;6.80;99.90;;;;;;4954458;28;20040;-74
2023/02/12 08:24:28;;;;;;;33.13;16.73;;;7.00;99.90;;;;;;4987122;28;20511;-72
2023/02/12 08:26:55;;;;;;;32.97;15.68;;;7.00;99.90;;;;;;5034176;28;20067;-75
2023/02/12 08:29:23;;;;;;;33.67;16.17;;;7.10;99.90;;;;;;5034894;28;20071;-72
2023/02/12 08:31:53;;;;;;;33.97;16.30;;;7.10;99.90;;;;;;5053232;28;20501;-74
2023/02/12 08:34:24;;;;;;;32.20;16.38;;;7.20;99.90;;;;;;5044848;28;20041;-75
2023/02/12 08:36:52;;;;;;;31.88;15.73;;;7.20;99.90;;;;;;5046823;28;20035;-68
2023/02/12 08:39:19;;;;;;;31.00;15.65;;;7.20;99.90;;;;;;5046636;28;20029;-67
2023/02/12 08:41:46;;;;;;;27.73;14.20;;;7.40;99.90;;;;;;5049745;28;20065;-74
2023/02/12 08:44:12;;;;;;;28.73;14.98;;;7.40;99.90;;;;;;5054042;28;20031;-73
2023/02/12 08:46:42;;;;;;;31.90;14.13;;;7.40;99.90;;;;;;5047419;28;20125;-68
2023/02/12 08:49:11;;;;;;;25.85;14.15;;;7.40;99.90;;;;;;5044365;28;20119;-67
2023/02/12 08:51:40;;;;;;;24.88;13.65;;;7.50;99.90;;;;;;5033280;28;20029;-66
2023/02/12 08:54:09;;;;;;;26.17;13.38;;;7.50;99.90;;;;;;4969986;28;20029;-67
2023/02/12 08:56:35;;;;;;;27.92;13.43;;;7.60;99.90;;;;;;4945930;28;20110;-68
2023/02/12 08:59:03;;;;;;;26.50;13.80;;;7.60;99.90;;;;;;4942047;28;20017;-73
2023/02/12 09:01:32;;;;;;;23.40;13.00;;;7.60;99.90;;;;;;4942797;28;20032;-75
2023/02/12 09:03:58;;;;;;;25.23;12.98;;;7.70;99.90;;;;;;4941351;28;20021;-68
2023/02/12 09:06:24;;;;;;;25.25;13.65;;;7.70;99.90;;;;;;4922381;28;20111;-67
2023/02/12 09:08:52;;;;;;;23.42;12.80;;;7.70;99.90;;;;;;4937371;28;20056;-66
2023/02/12 09:11:23;;;;;;;27.00;12.45;;;7.70;99.90;;;;;;4939207;28;20033;-67
2023/02/12 09:13:49;;;;;;;29.50;12.70;;;7.70;99.90;;;;;;4961065;28;20025;-67
2023/02/12 09:16:15;;;;;;;22.13;12.98;;;7.70;99.90;;;;;;4950174;28;20158;-75
2023/02/12 09:18:41;;;;;;;35.77;14.63;;;7.80;99.90;;;;;;4959194;28;20066;-67
2023/02/12 09:21:09;;;;;;;29.33;13.30;;;7.80;99.90;;;;;;4940330;28;20029;-66
2023/02/12 09:23:36;;;;;;;27.45;14.98;;;7.90;99.90;;;;;;4942768;28;20436;-66
2023/02/12 09:26:10;;;;;;;23.30;11.48;;;7.90;99.90;;;;;;4946455;28;20040;-67
2023/02/12 09:28:38;;;;;;;31.98;12.73;;;8.00;99.90;;;;;;4948736;28;20025;-67
2023/02/12 09:31:08;;;;;;;20.08;11.73;;;8.10;99.90;;;;;;4945940;28;20450;-66
2023/02/12 09:33:34;;;;;;;21.00;11.43;;;8.10;99.90;;;;;;4943686;28;20031;-66
2023/02/12 09:36:04;;;;;;;28.40;13.13;;;8.10;99.90;;;;;;4938466;28;20025;-67
2023/02/12 09:38:30;;;;;;;22.73;13.40;;;8.10;99.90;;;;;;4936745;28;20029;-67
2023/02/12 09:41:17;;;;;;;22.23;12.83;;;8.10;99.90;;;;;;4921775;28;20829;-71
2023/02/12 09:43:57;;;;;;;27.00;12.95;;;8.10;99.90;;;;;;4941146;28;20025;-67
2023/02/12 09:46:34;;;;;;;22.48;12.32;;;8.20;99.90;;;;;;4940324;28;20020;-67
2023/02/12 09:49:09;;;;;;;22.08;12.05;;;8.20;99.90;;;;;;4948502;28;20091;-69
2023/02/12 09:51:37;;;;;;;19.90;11.18;;;8.20;99.90;;;;;;4946740;28;20577;-67
2023/02/12 09:54:08;;;;;;;23.90;11.88;;;8.30;99.90;;;;;;4939483;28;20031;-67
2023/02/12 09:56:37;;;;;;;23.10;11.43;;;8.20;99.90;;;;;;4938523;28;20028;-76
2023/02/12 09:59:07;;;;;;;19.75;11.35;;;8.30;99.90;;;;;;4955432;28;20017;-67
2023/02/12 10:01:33;;;;;;;27.02;10.70;;;8.30;99.90;;;;;;4958763;28;20123;-76
2023/02/12 10:04:00;;;;;;;29.17;11.77;;;8.30;99.90;;;;;;4948123;28;20025;-68
2023/02/12 10:06:29;;;;;;;19.42;10.43;;;8.40;99.90;;;;;;4945355;28;21417;-67
2023/02/12 10:09:30;;;;;;;19.58;11.35;;;8.40;99.90;;;;;;4945458;28;20032;-67
2023/02/12 10:12:14;;;;;;;24.05;11.77;;;8.40;99.90;;;;;;4943402;28;20031;-68
2023/02/12 10:15:11;;;;;;;25.33;11.40;;;8.40;99.90;;;;;;4946196;28;20131;-68
2023/02/12 10:17:49;;;;;;;19.42;11.20;;;8.50;99.90;;;;;;4943753;28;20045;-67
2023/02/12 10:20:18;;;;;;;23.42;9.98;;;8.50;99.90;;;;;;4947633;28;20021;-69
2023/02/12 10:23:21;;;;;;;20.98;11.23;;;8.50;99.90;;;;;;4944821;28;20724;-71
2023/02/12 10:25:56;;;;;;;37.75;12.18;;;8.50;99.90;;;;;;4945560;28;20045;-68
2023/02/12 10:28:27;;;;;;;22.58;11.45;;;8.40;99.90;;;;;;4943180;28;20025;-69
2023/02/12 10:31:05;;;;;;;20.40;11.35;;;8.50;99.90;;;;;;4948196;28;20032;-71
2023/02/12 10:33:37;;;;;;;23.30;11.98;;;8.50;99.90;;;;;;4942022;28;20432;-71
2023/02/12 10:36:40;;;;;;;23.38;11.70;;;8.50;99.90;;;;;;4940944;28;20036;-68
2023/02/12 10:39:15;;;;;;;29.98;15.48;;;8.50;99.90;;;;;;4939326;28;20022;-68
2023/02/12 10:41:59;;;;;;;21.65;12.77;;;8.50;99.90;;;;;;4942671;28;20804;-68
2023/02/12 10:44:26;;;;;;;26.58;14.85;;;8.50;99.90;;;;;;5002137;28;20028;-77
2023/02/12 10:46:52;;;;;;;27.55;12.60;;;8.50;99.90;;;;;;5045360;28;20075;-78
2023/02/12 10:49:19;;;;;;;21.03;11.67;;;8.50;99.90;;;;;;5045771;28;20045;-76
2023/02/12 10:51:45;;;;;;;26.13;13.80;;;8.60;99.90;;;;;;5009561;28;23610;-77
2023/02/12 10:54:49;;;;;;;24.88;14.75;;;8.60;99.90;;;;;;4936487;28;20112;-68
2023/02/12 10:57:24;;;;;;;23.52;12.75;;;8.60;99.90;;;;;;4939881;28;20039;-77
2023/02/12 10:59:53;;;;;;;23.10;12.82;;;8.60;99.90;;;;;;4941146;28;20099;-70
2023/02/12 11:02:28;;;;;;;23.05;13.75;;;8.70;99.90;;;;;;4946969;28;20044;-67
2023/02/12 11:04:56;;;;;;;21.88;12.65;;;8.70;99.90;;;;;;4928483;28;20073;-67
2023/02/12 11:07:24;;;;;;;24.65;13.65;;;8.80;99.90;;;;;;4945350;28;20028;-68
2023/02/12 11:09:51;;;;;;;33.88;20.33;;;8.80;99.90;;;;;;4945351;28;20624;-67
2023/02/12 11:12:29;;;;;;;23.30;12.60;;;8.80;99.90;;;;;;4943851;28;20037;-67
2023/02/12 11:15:20;;;;;;;21.23;12.25;;;8.80;99.90;;;;;;4924752;28;20031;-67
2023/02/12 11:17:59;;;;;;;22.40;12.52;;;8.90;99.90;;;;;;4932833;28;20044;-67
2023/02/12 11:20:49;;;;;;;20.88;11.73;;;8.90;99.90;;;;;;4938979;28;20611;-75
2023/02/12 11:23:30;;;;;;;29.73;12.20;;;8.90;99.90;;;;;;4938501;28;20052;-67
2023/02/12 11:26:18;;;;;;;23.75;11.70;;;9.00;99.90;;;;;;4939624;28;21026;-77
2023/02/12 11:29:18;;;;;;;21.95;11.88;;;9.00;99.90;;;;;;4940138;28;21238;-68
2023/02/12 11:32:02;;;;;;;17.15;10.20;;;9.10;99.90;;;;;;4939889;28;20916;-73
2023/02/12 11:34:28;;;;;;;19.85;11.38;;;9.00;99.90;;;;;;4941708;28;20032;-67
2023/02/12 11:36:55;;;;;;;26.40;14.67;;;9.10;99.90;;;;;;4926614;28;20115;-67
2023/02/12 11:39:28;;;;;;;17.38;9.93;;;9.10;99.90;;;;;;4938783;28;20322;-67
2023/02/12 11:42:22;;;;;;;18.40;9.75;;;9.10;99.90;;;;;;4937978;28;23399;-68
2023/02/12 11:44:57;;;;;;;16.58;10.07;;;9.20;99.90;;;;;;4938763;28;20050;-68
2023/02/12 11:47:28;;;;;;;20.20;11.10;;;9.20;99.90;;;;;;4943941;28;20870;-78
2023/02/12 11:50:17;;;;;;;16.40;9.68;;;9.20;99.90;;;;;;4925075;28;20752;-76
2023/02/12 11:52:46;;;;;;;16.55;10.45;;;9.30;99.90;;;;;;4944733;28;20075;-68
2023/02/12 11:55:28;;;;;;;19.65;10.27;;;9.30;99.90;;;;;;4943286;28;20016;-75
2023/02/12 11:58:12;;;;;;;18.15;10.25;;;9.30;99.90;;;;;;4944529;28;20110;-67
2023/02/12 12:01:11;;;;;;;19.27;10.27;;;9.30;99.90;;;;;;4941864;28;20020;-77
2023/02/12 12:03:55;;;;;;;16.73;10.20;;;9.30;99.90;;;;;;4938762;28;20982;-69
2023/02/12 12:06:27;;;;;;;18.08;10.60;;;9.40;99.90;;;;;;4941217;28;20954;-77
2023/02/12 12:09:06;;;;;;;20.80;11.43;;;9.40;99.90;;;;;;4919305;28;20021;-77
2023/02/12 12:12:22;;;;;;;21.60;10.65;;;9.40;99.90;;;;;;4936257;28;20050;-67
2023/02/12 12:20:57;;;;;;;17.33;10.02;;;9.40;99.90;;;;;;4941461;28;20082;-67
2023/02/12 12:23:46;;;;;;;22.77;11.77;;;9.40;99.90;;;;;;4936738;28;20052;-68
2023/02/12 12:26:29;;;;;;;18.17;11.68;;;9.40;99.90;;;;;;4939119;28;20512;-67
2023/02/12 12:29:30;;;;;;;30.35;12.23;;;9.40;99.90;;;;;;4921172;28;20029;-71
2023/02/12 12:32:00;;;;;;;24.25;12.50;;;9.40;99.90;;;;;;4939798;28;20427;-67
2023/02/12 12:34:27;;;;;;;19.20;10.00;;;9.40;99.90;;;;;;4939853;28;20032;-67
2023/02/12 12:36:53;;;;;;;17.35;10.23;;;9.30;99.90;;;;;;4940346;28;20054;-67
2023/02/12 12:39:34;;;;;;;22.87;11.27;;;9.30;99.90;;;;;;4919606;28;21111;-67
2023/02/12 12:42:36;;;;;;;18.95;9.90;;;9.30;99.90;;;;;;4935959;28;20036;-67
2023/02/12 12:45:29;;;;;;;19.50;10.82;;;9.30;99.90;;;;;;4934241;28;20082;-67
2023/02/12 12:48:07;;;;;;;20.25;10.90;;;9.30;99.90;;;;;;4933255;28;20031;-67
2023/02/12 12:51:04;;;;;;;20.20;11.43;;;9.30;99.90;;;;;;4934374;28;20445;-68
2023/02/12 12:53:38;;;;;;;19.92;10.70;;;9.40;99.90;;;;;;4941221;28;20025;-67
2023/02/12 12:56:20;;;;;;;22.50;12.02;;;9.40;99.90;;;;;;4920436;28;20032;-67
2023/02/12 12:59:01;;;;;;;21.00;11.60;;;9.40;99.90;;;;;;4938310;28;21097;-67
2023/02/12 13:01:55;;;;;;;18.58;10.35;;;9.40;99.90;;;;;;4937783;28;20070;-67
2023/02/12 13:04:42;;;;;;;24.65;10.65;;;9.50;99.90;;;;;;4937112;28;20070;-67
2023/02/12 13:07:20;;;;;;;17.75;10.45;;;9.50;99.90;;;;;;4934492;28;23879;-66
2023/02/12 13:10:27;;;;;;;19.13;10.45;;;9.60;99.90;;;;;;4936513;28;21452;-69
2023/02/12 13:13:14;;;;;;;22.75;11.73;;;9.60;99.90;;;;;;4878740;28;20189;-67